Time;durP1;ratioP1;P1;durP2;ratioP2;P2;SDS_P1;SDS_P2;PMS_P1;PMS_P2;Temp;Humidity;BMP_temperature;BMP_pressure;BME280_temperature;BME280_humidity;BME280_pressure;Samples;Min_cycle;Max_cycle;Signal;HPM_P1;HPM_P2
2022/02/16 00:00:07;;;;;;;;;103.75;97.75;16.90;44.40;;;;;;4938581;29;8882;-73
2022/02/16 00:02:33;;;;;;;;;102.50;95.25;16.80;43.40;;;;;;4938722;29;9536;-73
2022/02/16 00:05:00;;;;;;;;;100.00;93.25;16.50;43.70;;;;;;4938480;29;8909;-73
2022/02/16 00:07:26;;;;;;;;;87.00;77.75;16.40;44.80;;;;;;4938426;29;8802;-73
2022/02/16 00:09:51;;;;;;;;;69.00;52.75;16.50;43.80;;;;;;4938436;29;8775;-73
2022/02/16 00:12:17;;;;;;;;;72.25;57.75;16.30;42.30;;;;;;4938690;29;8815;-73
2022/02/16 00:14:43;;;;;;;;;70.50;55.75;16.20;43.60;;;;;;4938277;29;9524;-72
2022/02/16 00:17:09;;;;;;;;;72.25;57.75;16.20;44.00;;;;;;4938509;29;8782;-72
2022/02/16 00:19:35;;;;;;;;;72.00;57.00;16.10;44.00;;;;;;4938403;29;8775;-73
2022/02/16 00:22:01;;;;;;;;;69.00;54.25;16.00;44.00;;;;;;4938084;29;8802;-73
2022/02/16 00:24:26;;;;;;;;;69.50;54.25;15.80;43.60;;;;;;4938348;29;8791;-74
2022/02/16 00:26:52;;;;;;;;;67.00;53.00;16.00;43.50;;;;;;4938339;29;8853;-73
2022/02/16 00:29:18;;;;;;;;;70.75;57.50;16.00;45.00;;;;;;4938032;29;8893;-73
2022/02/16 00:31:44;;;;;;;;;66.50;52.00;16.20;45.00;;;;;;4937835;29;8791;-73
2022/02/16 00:34:11;;;;;;;;;66.50;53.25;15.90;45.00;;;;;;4951737;28;8796;-72
2022/02/16 00:36:37;;;;;;;;;68.50;54.00;16.10;45.70;;;;;;4957394;28;9443;-73
2022/02/16 00:39:03;;;;;;;;;55.25;46.50;16.30;44.30;;;;;;4957043;28;8867;-72
2022/02/16 00:41:29;;;;;;;;;58.25;46.75;15.80;42.60;;;;;;4957027;28;8844;-73
2022/02/16 00:43:55;;;;;;;;;54.25;44.00;15.60;43.40;;;;;;4957082;28;8780;-73
2022/02/16 00:46:21;;;;;;;;;66.50;54.00;15.70;44.00;;;;;;4957001;28;9648;-72
2022/02/16 00:48:47;;;;;;;;;50.75;42.25;15.40;45.10;;;;;;4956946;28;8785;-72
2022/02/16 00:51:13;;;;;;;;;46.75;38.00;14.60;48.70;;;;;;4956759;28;8812;-72
2022/02/16 00:53:39;;;;;;;;;38.25;33.75;14.20;51.80;;;;;;4956728;28;8780;-74
2022/02/16 00:56:04;;;;;;;;;25.25;23.75;13.70;55.60;;;;;;4957139;28;8769;-73
2022/02/16 00:58:30;;;;;;;;;19.67;17.33;12.80;63.00;;;;;;4956778;28;8780;-71
2022/02/16 01:00:56;;;;;;;;;25.33;22.33;12.30;73.20;;;;;;4956732;28;8781;-73
2022/02/16 01:03:22;;;;;;;;;28.67;23.67;12.20;80.20;;;;;;4955751;28;8788;-74
2022/02/16 01:05:48;;;;;;;;;18.75;16.75;12.20;88.70;;;;;;4956663;28;8858;-72
2022/02/16 01:08:14;;;;;;;;;24.00;23.25;11.80;99.90;;;;;;4956712;28;8859;-73
2022/02/16 01:10:41;;;;;;;;;33.50;31.75;11.50;99.90;;;;;;4956451;28;8761;-72
2022/02/16 01:13:07;;;;;;;;;30.25;29.25;11.40;99.90;;;;;;4956545;28;8894;-72
2022/02/16 01:15:34;;;;;;;;;39.25;33.75;11.40;99.90;;;;;;4956576;28;8807;-72
2022/02/16 01:18:01;;;;;;;;;33.50;31.50;11.40;99.90;;;;;;4956645;28;8780;-72
2022/02/16 01:20:27;;;;;;;;;35.50;34.00;11.40;99.90;;;;;;4956652;28;8802;-72
2022/02/16 01:22:53;;;;;;;;;36.75;34.00;11.40;99.90;;;;;;4956593;28;8839;-72
2022/02/16 01:25:19;;;;;;;;;39.50;36.00;11.40;99.90;;;;;;4956377;28;8792;-72
2022/02/16 01:27:44;;;;;;;;;42.75;36.50;11.70;99.90;;;;;;4956456;28;8776;-72
2022/02/16 01:30:11;;;;;;;;;41.75;37.00;11.80;99.90;;;;;;4956402;28;9449;-72
2022/02/16 01:32:38;;;;;;;;;45.00;36.00;12.00;99.90;;;;;;4956258;28;8850;-73
2022/02/16 01:35:05;;;;;;;;;43.00;38.00;12.00;99.90;;;;;;4956248;28;8883;-72
2022/02/16 01:37:31;;;;;;;;;50.75;42.00;12.20;99.90;;;;;;4956262;28;8788;-73
2022/02/16 01:39:57;;;;;;;;;44.75;38.50;12.80;99.90;;;;;;4956501;28;8792;-72
2022/02/16 01:42:24;;;;;;;;;49.00;40.75;13.30;99.90;;;;;;4956463;28;8887;-71
2022/02/16 01:44:50;;;;;;;;;47.25;38.75;13.50;99.90;;;;;;4956233;28;8784;-76
2022/02/16 01:47:16;;;;;;;;;53.00;42.75;13.80;99.90;;;;;;4955182;29;9559;-74
2022/02/16 01:49:42;;;;;;;;;50.50;42.75;14.00;99.90;;;;;;4956213;28;9419;-75
2022/02/16 01:52:10;;;;;;;;;50.25;42.00;14.30;99.90;;;;;;4956189;28;8776;-75
2022/02/16 01:54:36;;;;;;;;;52.00;42.25;14.50;99.90;;;;;;4956353;28;8787;-73
2022/02/16 01:57:04;;;;;;;;;54.25;45.00;14.50;99.90;;;;;;4956336;28;8777;-76
2022/02/16 01:59:31;;;;;;;;;51.00;43.25;13.90;99.90;;;;;;4956129;28;8769;-75
2022/02/16 02:01:57;;;;;;;;;42.25;37.75;13.70;99.90;;;;;;4956006;28;8998;-73
2022/02/16 02:04:23;;;;;;;;;50.00;42.00;13.60;99.90;;;;;;4957921;28;8788;-73
2022/02/16 02:06:49;;;;;;;;;45.00;38.25;13.40;99.90;;;;;;4960087;28;8827;-75
2022/02/16 02:09:15;;;;;;;;;49.25;42.50;13.60;99.90;;;;;;4959803;28;8785;-74
2022/02/16 02:11:42;;;;;;;;;45.25;38.00;13.40;87.10;;;;;;4960049;28;9505;-75
2022/02/16 02:14:09;;;;;;;;;46.25;40.75;13.60;84.00;;;;;;4959911;28;8903;-73
2022/02/16 02:16:40;;;;;;;;;42.75;37.50;13.00;89.40;;;;;;4959743;28;8764;-72
2022/02/16 02:19:07;;;;;;;;;36.75;35.25;12.50;94.20;;;;;;4959638;28;8803;-73
2022/02/16 02:21:33;;;;;;;;;51.75;40.00;12.40;96.10;;;;;;4959561;28;8828;-73
2022/02/16 02:23:59;;;;;;;;;42.25;36.75;12.60;94.30;;;;;;4959568;28;8780;-73
2022/02/16 02:26:26;;;;;;;;;45.00;37.00;12.60;94.00;;;;;;4959578;28;8765;-74
2022/02/16 02:28:52;;;;;;;;;51.25;41.00;12.70;91.30;;;;;;4959503;28;8863;-72
2022/02/16 02:31:32;;;;;;;;;47.25;39.75;12.80;91.50;;;;;;4959426;28;8773;-73
2022/02/16 02:34:00;;;;;;;;;47.75;38.50;12.90;91.10;;;;;;4959313;28;8827;-74
2022/02/16 02:36:26;;;;;;;;;48.25;41.50;13.50;85.10;;;;;;4959337;28;8914;-73
2022/02/16 02:38:52;;;;;;;;;44.50;38.50;13.90;81.70;;;;;;4959320;28;8784;-74
2022/02/16 02:41:18;;;;;;;;;45.25;39.75;14.10;78.50;;;;;;4959440;28;8874;-73
2022/02/16 02:43:46;;;;;;;;;44.00;38.50;14.10;77.90;;;;;;4959199;28;8784;-74
2022/02/16 02:46:13;;;;;;;;;42.75;36.00;14.30;76.10;;;;;;4959125;28;8796;-73
2022/02/16 02:48:39;;;;;;;;;44.50;38.00;14.20;76.10;;;;;;4959060;28;8768;-72
2022/02/16 02:51:05;;;;;;;;;44.75;39.50;14.10;77.10;;;;;;4959063;28;8902;-74
2022/02/16 02:53:30;;;;;;;;;57.25;46.25;13.90;78.80;;;;;;4957993;28;8810;-72
2022/02/16 02:55:57;;;;;;;;;46.25;40.25;13.90;79.10;;;;;;4958957;28;8796;-72
2022/02/16 02:58:23;;;;;;;;;46.25;40.25;14.10;78.60;;;;;;4958962;28;8800;-73
2022/02/16 03:00:49;;;;;;;;;48.25;41.25;14.10;77.70;;;;;;4959129;28;8772;-73
2022/02/16 03:03:15;;;;;;;;;5.50;5.50;14.20;76.50;;;;;;4958893;28;9634;-73
2022/02/16 03:05:41;;;;;;;;;38.75;36.00;13.70;80.40;;;;;;4958826;28;8768;-73
2022/02/16 03:08:07;;;;;;;;;35.75;33.50;13.50;81.10;;;;;;4958811;28;8784;-73
2022/02/16 03:10:33;;;;;;;;;37.75;35.25;13.80;78.80;;;;;;4958658;28;8801;-74
2022/02/16 03:12:59;;;;;;;;;42.00;35.75;13.70;79.00;;;;;;4958737;28;8803;-73
2022/02/16 03:15:24;;;;;;;;;41.75;36.25;13.90;77.90;;;;;;4958515;28;8780;-74
2022/02/16 03:17:50;;;;;;;;;38.50;35.50;14.10;76.60;;;;;;4958638;28;8906;-72
2022/02/16 03:20:16;;;;;;;;;39.00;35.00;14.30;74.80;;;;;;4958517;28;8847;-73
2022/02/16 03:22:42;;;;;;;;;41.50;37.50;14.00;76.00;;;;;;4958428;28;8800;-72
2022/02/16 03:25:10;;;;;;;;;45.25;37.50;14.30;74.90;;;;;;4958506;28;8787;-74
2022/02/16 03:27:36;;;;;;;;;41.75;36.00;14.00;76.40;;;;;;4958568;28;8772;-73
2022/02/16 03:30:06;;;;;;;;;43.75;37.00;13.60;78.00;;;;;;4958643;28;8760;-73
2022/02/16 03:32:32;;;;;;;;;47.25;41.25;13.90;77.40;;;;;;4958151;28;8848;-73
2022/02/16 03:34:58;;;;;;;;;45.50;40.25;13.60;78.00;;;;;;4958551;28;8792;-75
2022/02/16 03:37:23;;;;;;;;;41.00;37.25;13.90;77.40;;;;;;4958332;28;8784;-73
2022/02/16 03:39:49;;;;;;;;;49.75;41.25;13.70;78.40;;;;;;4958451;28;8804;-74
2022/02/16 03:42:15;;;;;;;;;53.50;43.50;13.80;77.60;;;;;;4958032;28;8848;-74
2022/02/16 03:44:43;;;;;;;;;54.25;44.25;14.10;76.20;;;;;;4958100;28;8796;-73
2022/02/16 03:47:10;;;;;;;;;50.00;42.00;14.10;75.60;;;;;;4958129;28;9387;-73
2022/02/16 03:49:35;;;;;;;;;48.25;41.75;13.90;76.60;;;;;;4958278;28;9552;-74
2022/02/16 03:52:01;;;;;;;;;47.25;40.00;14.00;76.50;;;;;;4958023;28;8788;-74
2022/02/16 03:54:27;;;;;;;;;50.00;39.50;14.00;76.50;;;;;;4957980;28;8773;-73
2022/02/16 03:56:53;;;;;;;;;46.00;39.00;14.10;75.50;;;;;;4957869;28;8793;-74
2022/02/16 03:59:19;;;;;;;;;41.50;36.50;14.20;76.00;;;;;;4957827;28;8804;-75
2022/02/16 04:01:45;;;;;;;;;49.25;41.00;14.10;74.70;;;;;;4957761;28;8808;-75
2022/02/16 04:04:11;;;;;;;;;39.00;35.00;14.30;73.90;;;;;;4957829;28;8768;-74
2022/02/16 04:06:36;;;;;;;;;42.50;35.75;14.50;72.60;;;;;;4957958;28;8788;-74
2022/02/16 04:09:03;;;;;;;;;42.50;36.50;14.40;72.40;;;;;;4957646;28;8772;-73
2022/02/16 04:11:29;;;;;;;;;39.00;36.25;13.70;76.90;;;;;;4957506;28;8912;-72
2022/02/16 04:13:55;;;;;;;;;47.50;40.75;13.10;82.20;;;;;;4957554;28;8879;-73
2022/02/16 04:16:22;;;;;;;;;42.75;37.00;13.20;81.90;;;;;;4957609;28;8791;-74
2022/02/16 04:18:48;;;;;;;;;44.50;38.25;13.60;79.60;;;;;;4957410;28;8780;-73
2022/02/16 04:21:14;;;;;;;;;41.25;36.00;13.20;81.50;;;;;;4957432;28;8811;-73
2022/02/16 04:23:43;;;;;;;;;43.25;37.00;13.30;81.40;;;;;;4957711;28;8772;-71
2022/02/16 04:26:10;;;;;;;;;45.25;38.50;13.10;83.90;;;;;;4957327;28;9512;-73
2022/02/16 04:28:36;;;;;;;;;40.50;37.25;13.50;81.20;;;;;;4957100;28;8760;-71
2022/02/16 04:31:02;;;;;;;;;46.00;36.25;13.70;79.30;;;;;;4957454;28;8784;-71
2022/02/16 04:33:27;;;;;;;;;46.50;38.00;13.80;77.90;;;;;;4957123;28;8856;-71
2022/02/16 04:35:53;;;;;;;;;46.00;39.25;13.70;79.20;;;;;;4957182;28;9549;-71
2022/02/16 04:38:19;;;;;;;;;46.50;41.00;13.50;80.20;;;;;;4957183;28;8812;-71
2022/02/16 04:40:45;;;;;;;;;31.50;29.75;13.70;78.80;;;;;;4957041;28;8902;-71
2022/02/16 04:43:11;;;;;;;;;50.50;42.25;13.60;78.80;;;;;;4956955;28;9552;-71
2022/02/16 04:45:37;;;;;;;;;50.25;43.25;13.90;77.70;;;;;;4957001;28;8788;-71
2022/02/16 04:48:04;;;;;;;;;55.25;45.00;13.80;77.30;;;;;;4957258;28;8808;-71
2022/02/16 04:50:30;;;;;;;;;48.75;42.25;13.80;76.80;;;;;;4957120;28;8858;-72
2022/02/16 04:52:56;;;;;;;;;53.25;43.00;13.40;79.10;;;;;;4957081;28;8890;-72
2022/02/16 04:55:25;;;;;;;;;55.00;45.00;13.60;79.90;;;;;;4956839;28;8854;-71
2022/02/16 04:57:52;;;;;;;;;55.50;46.50;14.10;76.30;;;;;;4956752;28;8796;-71
2022/02/16 05:00:20;;;;;;;;;47.00;41.75;14.30;73.80;;;;;;4956919;28;8768;-71
2022/02/16 05:02:46;;;;;;;;;59.50;48.50;14.20;75.90;;;;;;4956857;28;8800;-71
2022/02/16 05:05:12;;;;;;;;;61.25;48.75;14.20;74.40;;;;;;4956653;28;8849;-71
2022/02/16 05:07:38;;;;;;;;;61.75;51.00;14.40;73.20;;;;;;4956678;28;8781;-71
2022/02/16 05:10:05;;;;;;;;;69.25;53.00;14.30;73.10;;;;;;4956641;28;8789;-72
2022/02/16 05:12:32;;;;;;;;;73.00;57.00;14.40;72.70;;;;;;4956854;28;8808;-72
2022/02/16 05:15:00;;;;;;;;;66.50;53.00;14.40;72.40;;;;;;4956800;28;9468;-71
2022/02/16 05:17:26;;;;;;;;;53.25;43.00;14.60;71.80;;;;;;4956799;28;8765;-72
2022/02/16 05:19:52;;;;;;;;;57.50;48.25;14.70;71.10;;;;;;4956726;28;8780;-72
2022/02/16 05:22:18;;;;;;;;;57.75;47.25;14.80;70.10;;;;;;4956476;28;9427;-72
2022/02/16 05:24:44;;;;;;;;;69.00;54.75;14.90;69.80;;;;;;4956613;28;8785;-72
2022/02/16 05:27:10;;;;;;;;;68.00;56.00;14.90;69.30;;;;;;4955356;28;8788;-72
2022/02/16 05:29:35;;;;;;;;;60.50;49.00;14.90;69.10;;;;;;4956426;28;8773;-72
2022/02/16 05:32:01;;;;;;;;;58.50;49.50;14.40;71.50;;;;;;4956375;28;8887;-72
2022/02/16 05:34:27;;;;;;;;;68.50;54.25;14.00;75.60;;;;;;4956588;28;8776;-72
2022/02/16 05:36:53;;;;;;;;;58.25;49.25;14.20;73.40;;;;;;4956598;28;8804;-72
2022/02/16 05:39:19;;;;;;;;;64.75;53.25;14.20;73.20;;;;;;4955318;28;8773;-72
2022/02/16 05:41:45;;;;;;;;;56.25;47.50;14.10;74.10;;;;;;4956572;28;8847;-72
2022/02/16 05:44:10;;;;;;;;;55.75;46.75;14.40;72.80;;;;;;4956255;28;8776;-72
2022/02/16 05:46:36;;;;;;;;;56.75;46.50;14.50;71.60;;;;;;4955164;29;8792;-72
2022/02/16 05:49:02;;;;;;;;;57.25;46.75;14.60;71.20;;;;;;4955967;28;8800;-72
2022/02/16 05:51:28;;;;;;;;;54.75;46.25;14.60;71.30;;;;;;4956042;28;8792;-72
2022/02/16 05:53:54;;;;;;;;;71.75;58.25;14.50;71.90;;;;;;4956249;28;8800;-72
2022/02/16 05:56:19;;;;;;;;;83.25;70.25;14.50;72.10;;;;;;4956133;28;9383;-72
2022/02/16 05:58:45;;;;;;;;;79.25;64.75;14.50;71.60;;;;;;4956293;28;8791;-72
2022/02/16 06:01:11;;;;;;;;;90.25;81.00;14.20;73.40;;;;;;4955997;28;8780;-72
2022/02/16 06:03:38;;;;;;;;;80.50;66.50;14.10;74.00;;;;;;4956066;28;8846;-72
2022/02/16 06:06:04;;;;;;;;;73.50;59.50;14.40;72.30;;;;;;4955969;28;8796;-72
2022/02/16 06:08:31;;;;;;;;;66.50;54.50;14.60;71.20;;;;;;4956043;28;8843;-72
2022/02/16 06:10:57;;;;;;;;;68.50;54.50;14.60;71.20;;;;;;4956161;28;9459;-72
2022/02/16 06:13:23;;;;;;;;;71.00;56.00;14.80;70.30;;;;;;4954930;29;8823;-72
2022/02/16 06:15:49;;;;;;;;;61.00;51.00;14.80;70.00;;;;;;4955925;28;8858;-72
2022/02/16 06:18:15;;;;;;;;;67.50;55.00;14.80;65.10;;;;;;4955908;28;8792;-72
2022/02/16 06:20:41;;;;;;;;;67.00;54.00;14.80;65.10;;;;;;4955959;28;8808;-72
2022/02/16 06:23:07;;;;;;;;;64.75;53.75;14.90;65.00;;;;;;4955828;28;9006;-72
2022/02/16 06:25:33;;;;;;;;;68.25;55.50;14.90;64.80;;;;;;4955907;28;8803;-72
2022/02/16 06:28:03;;;;;;;;;66.50;52.25;15.00;64.70;;;;;;4955998;28;8788;-71
2022/02/16 06:30:29;;;;;;;;;80.75;65.75;15.00;64.70;;;;;;4956107;28;8772;-71
2022/02/16 06:32:55;;;;;;;;;77.50;65.50;14.90;65.20;;;;;;4955587;28;8831;-72
2022/02/16 06:35:21;;;;;;;;;98.50;95.50;15.00;64.90;;;;;;4955971;28;8772;-71
2022/02/16 06:37:47;;;;;;;;;101.50;98.00;15.10;64.60;;;;;;4955929;28;8833;-72
2022/02/16 06:40:14;;;;;;;;;108.75;103.75;15.10;64.00;;;;;;4955666;28;8784;-72
2022/02/16 06:42:40;;;;;;;;;121.50;114.25;15.20;64.10;;;;;;4955947;28;8840;-71
2022/02/16 06:45:08;;;;;;;;;100.75;95.25;15.30;63.80;;;;;;4955710;28;9470;-71
2022/02/16 06:47:34;;;;;;;;;113.50;104.75;15.30;63.60;;;;;;4955613;28;8827;-72
2022/02/16 06:50:00;;;;;;;;;100.50;94.00;15.40;63.60;;;;;;4956567;28;8789;-72
2022/02/16 06:52:26;;;;;;;;;107.00;105.25;15.40;63.30;;;;;;4959318;28;8796;-72
2022/02/16 06:54:52;;;;;;;;;117.50;110.00;15.40;63.10;;;;;;4943061;28;8876;-73
2022/02/16 06:57:18;;;;;;;;;129.75;122.75;15.50;63.20;;;;;;4953101;28;8807;-73
2022/02/16 06:59:44;;;;;;;;;113.50;109.25;15.50;62.90;;;;;;4959132;28;9585;-73
2022/02/16 07:02:10;;;;;;;;;110.50;104.75;15.30;62.90;;;;;;4948901;28;8886;-72
2022/02/16 07:04:36;;;;;;;;;127.50;118.50;15.30;64.00;;;;;;4942010;29;8911;-72
2022/02/16 07:07:02;;;;;;;;;172.50;160.25;15.00;64.80;;;;;;4939837;29;9437;-72
2022/02/16 07:09:28;;;;;;;;;152.75;145.50;15.00;65.30;;;;;;4939595;29;8787;-72
2022/02/16 07:11:54;;;;;;;;;145.00;131.50;15.10;64.80;;;;;;4939615;29;8831;-72
2022/02/16 07:14:21;;;;;;;;;141.25;132.00;15.00;64.80;;;;;;4939507;29;8790;-72
2022/02/16 07:16:47;;;;;;;;;138.75;130.00;15.00;65.00;;;;;;4939553;29;8783;-72
2022/02/16 07:19:13;;;;;;;;;112.50;107.75;15.10;65.00;;;;;;4939401;29;8826;-72
2022/02/16 07:21:39;;;;;;;;;120.50;110.25;15.10;64.90;;;;;;4939492;29;8852;-72
2022/02/16 07:24:05;;;;;;;;;98.25;89.50;15.40;64.30;;;;;;4939269;29;8787;-72
2022/02/16 07:26:31;;;;;;;;;92.75;87.00;15.50;63.50;;;;;;4939167;29;8795;-72
2022/02/16 07:28:58;;;;;;;;;85.50;77.00;15.40;63.30;;;;;;4939387;29;8787;-72
2022/02/16 07:31:24;;;;;;;;;80.50;70.00;15.40;63.80;;;;;;4939052;29;8791;-72
2022/02/16 07:33:50;;;;;;;;;74.25;57.50;15.30;64.00;;;;;;4939019;29;8842;-72
2022/02/16 07:36:16;;;;;;;;;81.75;71.75;15.00;64.10;;;;;;4939054;29;8828;-71
2022/02/16 07:38:42;;;;;;;;;80.75;71.00;14.10;69.60;;;;;;4939020;29;8859;-72
2022/02/16 07:41:08;;;;;;;;;78.75;68.75;13.80;72.20;;;;;;4939056;29;8842;-73
2022/02/16 07:43:34;;;;;;;;;73.00;62.00;13.80;73.80;;;;;;4946769;28;8834;-72
2022/02/16 07:46:00;;;;;;;;;73.75;59.50;13.90;72.70;;;;;;4957349;28;8839;-72
2022/02/16 07:48:26;;;;;;;;;71.00;57.00;14.00;72.30;;;;;;4947041;29;9449;-71
2022/02/16 07:50:51;;;;;;;;;75.75;58.50;13.90;72.40;;;;;;4948543;28;8857;-71
2022/02/16 07:53:18;;;;;;;;;70.00;56.25;13.80;74.00;;;;;;4957856;28;8804;-72
2022/02/16 07:55:44;;;;;;;;;71.50;57.25;14.00;73.20;;;;;;4943315;28;8819;-72
2022/02/16 07:58:10;;;;;;;;;81.50;64.25;14.40;70.10;;;;;;4938509;29;8779;-72
2022/02/16 08:00:37;;;;;;;;;82.25;69.50;14.20;70.50;;;;;;4938806;29;8775;-71
2022/02/16 08:03:04;;;;;;;;;80.00;67.75;14.40;69.80;;;;;;4937618;29;8843;-72
2022/02/16 08:05:31;;;;;;;;;76.25;65.00;14.70;68.60;;;;;;4938562;29;8807;-71
2022/02/16 08:07:56;;;;;;;;;73.75;61.75;14.70;68.00;;;;;;4938496;29;8801;-72
2022/02/16 08:10:23;;;;;;;;;68.25;55.25;14.50;69.10;;;;;;4938305;29;8794;-72
2022/02/16 08:12:56;;;;;;;;;73.25;59.25;13.70;72.80;;;;;;4938722;29;9559;-72
2022/02/16 08:15:23;;;;;;;;;62.50;51.25;13.70;74.30;;;;;;4976801;28;8781;-72
2022/02/16 08:17:49;;;;;;;;;75.50;59.00;13.70;75.60;;;;;;4975825;28;8785;-72
2022/02/16 08:20:15;;;;;;;;;71.75;57.00;14.20;71.50;;;;;;4976708;28;9522;-72
2022/02/16 08:22:41;;;;;;;;;70.75;55.25;14.60;69.80;;;;;;4975524;28;8841;-72
2022/02/16 08:25:08;;;;;;;;;72.50;58.50;14.50;67.50;;;;;;4976656;28;8856;-71
2022/02/16 08:27:35;;;;;;;;;76.75;60.25;14.50;68.20;;;;;;4976526;28;8896;-72
2022/02/16 08:30:00;;;;;;;;;82.75;68.50;14.70;67.90;;;;;;4976443;28;8802;-72
2022/02/16 08:32:26;;;;;;;;;75.75;60.50;15.10;66.80;;;;;;4950535;28;8824;-72
2022/02/16 08:34:52;;;;;;;;;78.50;65.75;15.40;65.00;;;;;;4957170;28;8784;-71
2022/02/16 08:37:19;;;;;;;;;81.50;63.75;15.40;65.00;;;;;;4952867;28;8826;-72
2022/02/16 08:39:45;;;;;;;;;79.25;63.00;15.40;63.90;;;;;;4950945;28;8783;-71
2022/02/16 08:42:11;;;;;;;;;77.75;67.25;15.40;64.60;;;;;;4949638;28;8844;-72
2022/02/16 08:44:37;;;;;;;;;79.75;66.75;15.50;64.40;;;;;;4947678;28;8765;-72
2022/02/16 08:47:04;;;;;;;;;69.75;57.25;15.30;64.10;;;;;;4941751;29;8803;-73
2022/02/16 08:49:30;;;;;;;;;80.50;65.00;15.10;65.60;;;;;;4937677;29;8866;-72
2022/02/16 08:51:56;;;;;;;;;72.75;59.75;15.40;64.70;;;;;;4937677;29;8798;-72
2022/02/16 08:54:22;;;;;;;;;80.50;66.75;15.70;63.60;;;;;;4937762;29;8787;-72
2022/02/16 08:56:49;;;;;;;;;79.25;65.75;16.00;62.70;;;;;;4937868;29;8783;-72
2022/02/16 08:59:15;;;;;;;;;82.00;72.25;16.10;61.80;;;;;;4937833;29;8790;-72
2022/02/16 09:01:42;;;;;;;;;77.75;64.75;16.20;61.30;;;;;;4937743;29;8819;-72
2022/02/16 09:04:08;;;;;;;;;79.50;69.25;16.00;61.50;;;;;;4937735;29;8798;-72
2022/02/16 09:06:35;;;;;;;;;83.50;79.00;15.70;62.50;;;;;;4937378;29;8787;-72
2022/02/16 09:09:02;;;;;;;;;80.50;73.00;15.30;64.80;;;;;;4937484;29;8773;-72
2022/02/16 09:11:29;;;;;;;;;83.75;69.50;15.50;64.40;;;;;;4937203;29;8810;-72
2022/02/16 09:13:57;;;;;;;;;77.00;65.25;15.80;62.90;;;;;;4942200;28;8792;-72
2022/02/16 09:16:23;;;;;;;;;76.25;61.75;16.00;62.70;;;;;;4948696;28;8788;-72
2022/02/16 09:18:49;;;;;;;;;66.00;53.00;16.30;61.70;;;;;;4941040;28;8786;-72
2022/02/16 09:21:17;;;;;;;;;63.00;51.50;15.50;63.20;;;;;;4954360;28;8784;-72
2022/02/16 09:23:43;;;;;;;;;66.00;52.25;15.60;62.90;;;;;;4956399;28;8823;-72
2022/02/16 09:26:10;;;;;;;;;64.25;50.75;15.60;62.90;;;;;;4949706;29;8848;-73
2022/02/16 09:28:36;;;;;;;;;62.25;51.25;16.10;62.20;;;;;;4943413;28;8886;-71
2022/02/16 09:31:03;;;;;;;;;60.25;49.50;16.20;61.20;;;;;;4947699;28;8793;-72
2022/02/16 09:33:30;;;;;;;;;59.50;48.75;16.00;61.10;;;;;;4948088;28;8820;-71
2022/02/16 09:35:56;;;;;;;;;52.50;42.25;16.50;60.60;;;;;;4942806;28;9481;-72
2022/02/16 09:38:23;;;;;;;;;53.25;44.75;16.70;59.60;;;;;;4947952;28;8808;-72
2022/02/16 09:40:51;;;;;;;;;50.50;42.75;16.80;59.70;;;;;;4949205;28;8829;-72
2022/02/16 09:43:22;;;;;;;;;43.00;36.00;16.90;58.10;;;;;;4947599;28;8844;-72
2022/02/16 09:45:53;;;;;;;;;41.75;36.75;16.90;57.60;;;;;;4957265;28;8815;-72
2022/02/16 09:48:23;;;;;;;;;43.50;37.00;16.50;58.70;;;;;;4956209;28;8784;-72
2022/02/16 09:50:52;;;;;;;;;43.00;37.00;15.80;60.90;;;;;;4956193;28;8870;-72
2022/02/16 09:53:17;;;;;;;;;52.25;43.00;16.00;61.50;;;;;;4956032;28;8784;-72
2022/02/16 09:55:44;;;;;;;;;47.75;41.00;16.40;60.80;;;;;;4955985;29;8792;-73
2022/02/16 09:58:10;;;;;;;;;45.50;38.25;16.90;58.60;;;;;;4956187;29;8773;-72
2022/02/16 10:00:36;;;;;;;;;46.25;40.75;16.80;58.90;;;;;;4956075;28;8781;-72
2022/02/16 10:03:13;;;;;;;;;44.25;37.50;16.40;60.20;;;;;;4955869;28;8828;-71
2022/02/16 10:05:39;;;;;;;;;51.00;41.00;16.20;60.30;;;;;;4955823;28;8802;-71
2022/02/16 10:08:06;;;;;;;;;41.50;35.75;16.40;61.00;;;;;;4955526;28;8781;-72
2022/02/16 10:10:32;;;;;;;;;40.75;36.50;17.00;59.00;;;;;;4950217;28;8798;-71
2022/02/16 10:12:59;;;;;;;;;40.00;35.00;17.10;57.30;;;;;;4949086;28;8789;-71
2022/02/16 10:15:38;;;;;;;;;33.50;31.25;17.10;56.30;;;;;;4946848;29;8784;-71
2022/02/16 10:18:17;;;;;;;;;40.50;34.50;17.20;56.50;;;;;;4956045;29;8776;-72
2022/02/16 10:20:43;;;;;;;;;43.25;35.75;16.80;57.10;;;;;;4953354;28;8807;-71
2022/02/16 10:23:10;;;;;;;;;42.75;35.75;16.60;58.90;;;;;;4941379;29;8834;-72
2022/02/16 10:25:36;;;;;;;;;33.33;31.00;17.50;56.30;;;;;;4949603;28;9427;-72
2022/02/16 10:28:09;;;;;;;;;39.50;34.00;18.00;54.00;;;;;;4950957;28;8834;-72
2022/02/16 10:30:38;;;;;;;;;42.75;36.00;18.40;52.10;;;;;;4943083;28;8825;-72
2022/02/16 10:33:19;;;;;;;;;40.50;36.00;18.20;51.60;;;;;;4950793;28;8847;-72
2022/02/16 10:35:46;;;;;;;;;44.50;38.00;18.20;51.60;;;;;;4940226;29;8812;-72
2022/02/16 10:38:12;;;;;;;;;51.25;44.50;18.30;51.60;;;;;;4940084;29;8889;-72
2022/02/16 10:40:39;;;;;;;;;50.50;41.75;17.80;52.90;;;;;;4943659;28;8779;-71
2022/02/16 10:43:05;;;;;;;;;44.75;38.75;17.50;54.50;;;;;;4978381;28;8817;-72
2022/02/16 10:45:33;;;;;;;;;47.50;39.25;17.50;54.80;;;;;;4978382;28;8840;-72
2022/02/16 10:48:06;;;;;;;;;42.75;37.50;17.20;54.70;;;;;;4978321;28;8790;-72
2022/02/16 10:50:35;;;;;;;;;41.00;37.50;17.70;53.40;;;;;;4978554;28;9590;-72
2022/02/16 10:53:10;;;;;;;;;31.00;30.00;17.60;53.80;;;;;;4978496;28;8798;-72
2022/02/16 10:55:37;;;;;;;;;25.67;24.67;17.10;53.60;;;;;;4956804;28;8784;-72
2022/02/16 10:58:07;;;;;;;;;23.33;23.33;17.40;53.80;;;;;;4944570;28;8787;-73
2022/02/16 11:00:35;;;;;;;;;35.67;32.33;17.40;53.30;;;;;;4953891;28;8768;-73
2022/02/16 11:03:03;;;;;;;;;23.33;23.33;18.10;52.20;;;;;;4957590;28;8812;-73
2022/02/16 11:05:30;;;;;;;;;32.67;30.67;18.80;49.60;;;;;;4953809;28;8947;-73
2022/02/16 11:07:58;;;;;;;;;29.33;28.67;20.20;46.20;;;;;;4957445;28;8781;-71
2022/02/16 11:10:27;;;;;;;;;31.67;31.00;20.00;45.70;;;;;;4957134;28;8796;-73
2022/02/16 11:12:54;;;;;;;;;37.67;33.33;19.60;46.70;;;;;;4957388;28;8788;-74
2022/02/16 11:15:22;;;;;;;;;19.67;18.33;19.00;47.90;;;;;;4957448;28;8775;-73
2022/02/16 11:17:48;;;;;;;;;26.33;26.00;18.20;49.40;;;;;;4955680;28;8752;-72
2022/02/16 11:20:25;;;;;;;;;32.00;30.67;17.30;52.20;;;;;;4955459;28;8887;-73
2022/02/16 11:22:58;;;;;;;;;26.00;25.33;17.20;52.70;;;;;;4954985;28;8796;-71
2022/02/16 11:25:27;;;;;;;;;30.33;29.00;17.20;52.70;;;;;;4954920;28;8815;-72
2022/02/16 11:27:53;;;;;;;;;33.67;31.00;17.00;53.80;;;;;;4955170;28;8811;-73
2022/02/16 11:30:32;;;;;;;;;20.33;20.33;17.60;51.60;;;;;;4957712;28;8780;-73
2022/02/16 11:33:19;;;;;;;;;25.00;25.00;18.10;52.00;;;;;;4938974;29;8806;-73
2022/02/16 11:35:55;;;;;;;;;24.33;22.33;19.30;48.40;;;;;;4938288;29;8771;-71
2022/02/16 11:38:39;;;;;;;;;22.00;22.00;20.60;43.80;;;;;;4939494;29;8889;-72
2022/02/16 11:41:26;;;;;;;;;25.33;25.33;19.90;43.90;;;;;;4938908;29;8822;-73
2022/02/16 11:44:02;;;;;;;;;35.67;31.00;19.80;44.20;;;;;;4939069;29;8798;-74
2022/02/16 11:46:44;;;;;;;;;36.33;34.67;19.30;45.50;;;;;;4938963;29;8799;-73
2022/02/16 11:49:29;;;;;;;;;32.67;30.00;18.00;48.50;;;;;;4905756;28;8805;-73
2022/02/16 11:51:58;;;;;;;;;37.33;33.00;17.40;50.10;;;;;;4891407;29;8784;-73
2022/02/16 11:54:46;;;;;;;;;30.33;30.00;17.50;51.20;;;;;;4897845;29;8803;-71
2022/02/16 11:57:30;;;;;;;;;37.00;31.67;18.10;50.50;;;;;;4878082;28;12102;-72
2022/02/16 12:00:08;;;;;;;;;35.33;33.00;18.10;49.40;;;;;;4880815;29;8795;-72
2022/02/16 12:03:02;;;;;;;;;38.67;34.67;19.30;47.80;;;;;;4880371;29;8972;-72
2022/02/16 12:05:51;;;;;;;;;33.67;31.67;21.90;42.90;;;;;;4881942;29;9432;-71
2022/02/16 12:08:47;;;;;;;;;36.00;33.33;22.90;38.20;;;;;;4881953;29;8788;-72
2022/02/16 12:11:17;;;;;;;;;39.00;34.00;22.40;38.50;;;;;;4881827;29;8835;-73
2022/02/16 12:13:58;;;;;;;;;35.00;32.33;21.20;40.60;;;;;;4882000;29;8772;-73
2022/02/16 12:16:45;;;;;;;;;37.33;34.67;21.90;39.50;;;;;;4881723;29;8855;-71
2022/02/16 12:19:16;;;;;;;;;30.67;29.00;21.50;39.50;;;;;;4881823;29;8784;-73
2022/02/16 12:21:52;;;;;;;;;22.33;20.33;21.20;39.90;;;;;;4881521;29;8772;-73
2022/02/16 12:24:22;;;;;;;;;28.67;28.67;21.10;39.30;;;;;;4900220;29;8796;-72
2022/02/16 12:26:56;;;;;;;;;31.00;29.33;21.10;40.30;;;;;;4900105;29;8871;-73
2022/02/16 12:29:24;;;;;;;;;35.00;32.67;21.00;40.60;;;;;;4900142;29;9489;-73
2022/02/16 12:31:53;;;;;;;;;37.67;33.33;20.60;41.10;;;;;;4900313;29;8796;-73
2022/02/16 12:34:25;;;;;;;;;33.67;32.33;19.60;42.70;;;;;;4919263;29;8783;-74
2022/02/16 12:36:57;;;;;;;;;22.00;21.67;18.90;44.70;;;;;;4918228;29;8869;-73